createdAt,value
2017-11-23T00:00:38.578Z,81.10
2017-11-23T00:03:06.904Z,81.30
2017-11-23T00:05:34.428Z,81.20
2017-11-23T00:08:02.754Z,80.80
2017-11-23T00:10:30.300Z,80.80
2017-11-23T00:12:57.850Z,80.50
2017-11-23T00:15:25.376Z,80.50
2017-11-23T00:17:54.216Z,80.40
2017-11-23T00:20:21.760Z,80.20
2017-11-23T00:22:49.297Z,80.20
2017-11-23T00:25:16.839Z,80.10
2017-11-23T00:27:45.143Z,79.70
2017-11-23T00:30:13.730Z,79.70
2017-11-23T00:32:41.284Z,79.70
2017-11-23T00:35:08.815Z,80.00
2017-11-23T00:37:36.353Z,80.20
2017-11-23T00:40:03.933Z,80.20
2017-11-23T00:42:31.475Z,80.20
2017-11-23T00:44:59.000Z,81.00
2017-11-23T00:47:26.551Z,80.20
2017-11-23T00:49:54.077Z,80.20
2017-11-23T00:52:21.605Z,80.40
2017-11-23T00:54:49.165Z,80.60
2017-11-23T00:57:16.699Z,81.20
2017-11-23T00:59:44.219Z,81.30
2017-11-23T01:02:11.801Z,81.40
2017-11-23T01:04:39.338Z,81.10
2017-11-23T01:07:06.861Z,81.60
2017-11-23T01:09:35.196Z,80.60
2017-11-23T01:12:02.860Z,81.20
2017-11-23T01:14:30.402Z,80.40
2017-11-23T01:16:57.976Z,80.30
2017-11-23T01:19:25.524Z,80.20
2017-11-23T01:21:53.079Z,80.20
2017-11-23T01:24:20.652Z,80.10
2017-11-23T01:26:48.167Z,79.90
2017-11-23T01:29:16.373Z,79.80
2017-11-23T01:31:43.931Z,80.50
2017-11-23T01:34:11.463Z,80.00
2017-11-23T01:36:38.984Z,79.60
2017-11-23T01:39:06.542Z,79.60
2017-11-23T01:41:34.084Z,79.50
2017-11-23T01:44:01.616Z,79.70
2017-11-23T01:46:29.240Z,79.70
2017-11-23T01:48:57.533Z,80.00
2017-11-23T01:51:25.064Z,80.00
2017-11-23T01:53:52.619Z,80.20
2017-11-23T01:56:20.153Z,80.20
2017-11-23T01:58:47.677Z,80.40
2017-11-23T02:01:16.410Z,80.80
2017-11-23T02:03:43.937Z,80.60
2017-11-23T02:06:11.468Z,80.20
2017-11-23T02:08:39.044Z,80.40
2017-11-23T02:11:06.568Z,80.50
2017-11-23T02:13:34.866Z,81.40
2017-11-23T02:16:02.425Z,81.40
2017-11-23T02:18:29.960Z,81.40
2017-11-23T02:20:58.032Z,81.40
2017-11-23T02:23:25.689Z,81.40
2017-11-23T02:25:53.225Z,81.70
2017-11-23T02:28:20.768Z,82.10
2017-11-23T02:30:48.375Z,82.00
2017-11-23T02:33:16.477Z,81.80
2017-11-23T02:35:44.037Z,81.80
2017-11-23T02:38:11.632Z,82.10
2017-11-23T02:40:39.167Z,82.00
2017-11-23T02:43:07.392Z,81.20
2017-11-23T02:45:35.752Z,81.20
2017-11-23T02:48:03.289Z,81.20
2017-11-23T02:50:30.819Z,81.00
2017-11-23T02:52:58.394Z,81.40
2017-11-23T02:55:25.943Z,81.40
2017-11-23T02:57:53.472Z,81.70
2017-11-23T03:00:21.794Z,82.40
2017-11-23T03:02:49.328Z,81.70
2017-11-23T03:05:16.855Z,81.80
2017-11-23T03:07:44.412Z,82.10
2017-11-23T03:10:12.721Z,82.80
2017-11-23T03:12:40.266Z,82.10
2017-11-23T03:15:08.893Z,82.30
2017-11-23T03:17:36.541Z,82.30
2017-11-23T03:20:04.073Z,82.30
2017-11-23T03:22:32.043Z,82.40
2017-11-23T03:24:59.563Z,82.00
2017-11-23T03:27:27.089Z,81.40
2017-11-23T03:29:54.640Z,81.10
2017-11-23T03:32:22.175Z,80.80
2017-11-23T03:34:49.712Z,80.80
2017-11-23T03:37:17.293Z,80.50
2017-11-23T03:39:44.829Z,80.20
2017-11-23T03:42:12.375Z,80.20
2017-11-23T03:44:40.696Z,80.80
2017-11-23T03:47:08.245Z,80.20
2017-11-23T03:49:35.789Z,80.00
2017-11-23T03:52:04.120Z,79.90
2017-11-23T03:54:31.656Z,79.90
2017-11-23T03:56:59.200Z,79.80
2017-11-23T03:59:26.795Z,79.60
2017-11-23T04:01:54.337Z,79.30
2017-11-23T04:04:21.878Z,79.30
2017-11-23T04:06:49.437Z,79.30
2017-11-23T04:09:16.986Z,79.20
2017-11-23T04:11:44.735Z,79.30
2017-11-23T04:14:13.988Z,80.00
2017-11-23T04:16:41.516Z,79.90
2017-11-23T04:19:09.047Z,79.90
2017-11-23T04:21:36.645Z,79.50
2017-11-23T04:24:04.581Z,79.40
2017-11-23T04:26:32.896Z,79.80
2017-11-23T04:29:00.455Z,79.70
2017-11-23T04:31:28.008Z,80.10
2017-11-23T04:33:55.537Z,80.20
2017-11-23T04:36:23.884Z,80.30
2017-11-23T04:38:51.412Z,80.40
2017-11-23T04:41:18.960Z,80.60
2017-11-23T04:43:46.592Z,80.40
2017-11-23T04:46:16.632Z,80.60
2017-11-23T04:48:44.168Z,81.20
2017-11-23T04:51:12.493Z,81.20
2017-11-23T04:53:40.036Z,81.90
2017-11-23T04:56:07.571Z,81.60
2017-11-23T04:58:35.144Z,82.20
2017-11-23T05:01:02.668Z,82.30
2017-11-23T05:03:32.722Z,82.50
2017-11-23T05:06:00.308Z,82.40
2017-11-23T05:08:27.916Z,82.00
2017-11-23T05:10:56.245Z,81.60
2017-11-23T05:13:23.827Z,81.60
2017-11-23T05:15:51.375Z,81.60
2017-11-23T05:18:18.999Z,82.70
2017-11-23T05:20:46.568Z,82.00
2017-11-23T05:23:16.260Z,81.50
2017-11-23T05:25:43.808Z,81.50
2017-11-23T05:28:12.461Z,81.10
2017-11-23T05:30:40.030Z,81.10
2017-11-23T05:33:07.568Z,81.10
2017-11-23T05:35:35.196Z,81.40
2017-11-23T05:38:02.801Z,81.40
2017-11-23T05:40:30.333Z,81.60
2017-11-23T05:42:58.672Z,81.40
2017-11-23T05:45:26.234Z,81.40
2017-11-23T05:47:53.777Z,81.40
2017-11-23T05:50:22.128Z,81.20
2017-11-23T05:52:49.663Z,81.20
2017-11-23T05:55:17.324Z,81.30
2017-11-23T05:57:44.896Z,81.20
2017-11-23T06:00:12.420Z,81.10
2017-11-23T06:02:39.968Z,81.00
2017-11-23T06:05:07.562Z,81.00
2017-11-23T06:07:35.395Z,80.80
2017-11-23T06:10:03.796Z,80.50
2017-11-23T06:12:31.571Z,80.40
2017-11-23T06:14:59.132Z,80.80
2017-11-23T06:17:26.843Z,80.30
2017-11-23T06:19:54.423Z,80.00
2017-11-23T06:22:21.988Z,79.70
2017-11-23T06:24:49.785Z,79.40
2017-11-23T06:27:17.706Z,78.90
2017-11-23T06:29:46.124Z,78.80
2017-11-23T06:32:14.610Z,78.60
2017-11-23T06:34:42.202Z,78.40
2017-11-23T06:37:09.794Z,78.40
2017-11-23T06:39:37.481Z,78.20
2017-11-23T06:42:05.055Z,77.80
2017-11-23T06:44:32.918Z,77.60
2017-11-23T06:47:00.460Z,77.70
2017-11-23T06:49:28.049Z,77.60
2017-11-23T06:51:55.576Z,77.00
2017-11-23T06:54:23.730Z,76.80
2017-11-23T06:56:51.312Z,77.00
2017-11-23T06:59:18.841Z,76.70
2017-11-23T07:01:46.442Z,76.80
2017-11-23T07:04:16.465Z,76.70
2017-11-23T07:06:44.096Z,76.30
2017-11-23T07:09:11.636Z,75.80
2017-11-23T07:11:39.203Z,75.40
2017-11-23T07:14:06.987Z,74.90
2017-11-23T07:16:34.529Z,74.60
2017-11-23T07:19:02.134Z,74.40
2017-11-23T07:21:29.809Z,74.50
2017-11-23T07:23:57.626Z,74.40
2017-11-23T07:26:25.452Z,73.60
2017-11-23T07:28:53.412Z,73.00
2017-11-23T07:31:21.745Z,72.30
2017-11-23T07:33:49.330Z,72.20
2017-11-23T07:36:16.909Z,72.20
2017-11-23T07:38:45.208Z,72.50
2017-11-23T07:41:15.623Z,72.40
2017-11-23T07:43:43.159Z,72.70
2017-11-23T07:46:10.697Z,73.00
2017-11-23T07:48:38.261Z,72.90
2017-11-23T07:51:06.572Z,71.80
2017-11-23T07:53:34.121Z,72.00
2017-11-23T07:56:01.682Z,71.20
2017-11-23T07:58:30.841Z,69.80
2017-11-23T08:00:58.398Z,69.90
2017-11-23T08:03:25.972Z,69.70
2017-11-23T08:05:53.499Z,69.40
2017-11-23T08:08:21.024Z,69.70
2017-11-23T08:10:48.588Z,69.60
2017-11-23T08:13:16.485Z,69.70
2017-11-23T08:15:44.153Z,69.40
2017-11-23T08:18:11.716Z,69.50
2017-11-23T08:20:39.697Z,69.30
2017-11-23T08:23:07.233Z,69.20
2017-11-23T08:25:34.815Z,69.30
2017-11-23T08:28:02.365Z,65.10
2017-11-23T08:30:30.436Z,57.90
2017-11-23T08:32:58.004Z,49.30
2017-11-23T08:35:25.542Z,46.10
2017-11-23T08:37:53.083Z,43.30
2017-11-23T08:40:20.642Z,43.50
2017-11-23T08:42:48.177Z,41.30
2017-11-23T08:45:16.514Z,39.00
2017-11-23T08:47:44.096Z,37.20
2017-11-23T08:50:12.453Z,35.00
2017-11-23T08:52:44.906Z,34.90
2017-11-23T08:55:15.248Z,33.30
2017-11-23T08:57:43.573Z,32.40
2017-11-23T09:00:11.143Z,32.30
2017-11-23T09:02:38.772Z,31.20
2017-11-23T09:05:06.662Z,30.20
2017-11-23T09:07:34.252Z,31.80
2017-11-23T09:10:01.785Z,31.50
2017-11-23T09:12:35.109Z,32.50
2017-11-23T09:15:02.636Z,33.80
2017-11-23T09:17:30.174Z,35.00
2017-11-23T09:19:58.500Z,35.20
2017-11-23T09:22:26.036Z,35.20
2017-11-23T09:24:53.605Z,35.20
2017-11-23T09:27:21.218Z,36.00
2017-11-23T09:29:49.524Z,35.80
2017-11-23T09:32:18.099Z,35.80
2017-11-23T09:34:45.670Z,35.80
2017-11-23T09:37:14.593Z,34.90
2017-11-23T09:39:42.141Z,36.00
2017-11-23T09:42:09.705Z,36.40
2017-11-23T09:44:37.248Z,35.70
2017-11-23T09:47:04.782Z,34.90
2017-11-23T09:49:32.361Z,34.20
2017-11-23T09:51:59.888Z,35.20
2017-11-23T09:54:28.185Z,34.40
2017-11-23T09:56:55.737Z,34.40
2017-11-23T09:59:23.293Z,35.10
2017-11-23T10:01:50.829Z,34.60
2017-11-23T10:04:18.385Z,33.70
2017-11-23T10:06:46.685Z,35.00
2017-11-23T10:09:15.497Z,35.00
2017-11-23T10:11:43.085Z,35.30
2017-11-23T10:14:16.280Z,34.40
2017-11-23T10:16:43.821Z,36.10
2017-11-23T10:19:11.718Z,39.50
2017-11-23T10:21:40.176Z,40.00
2017-11-23T10:24:07.711Z,40.00
2017-11-23T10:26:35.476Z,40.00
2017-11-23T10:29:03.011Z,41.50
2017-11-23T10:31:30.554Z,42.30
2017-11-23T10:33:59.192Z,43.40
2017-11-23T10:36:27.511Z,43.30
2017-11-23T10:38:55.872Z,43.30
2017-11-23T10:41:23.448Z,43.30
2017-11-23T10:43:51.749Z,42.20
2017-11-23T10:46:19.285Z,42.20
2017-11-23T10:48:46.847Z,42.30
2017-11-23T10:51:16.424Z,42.90
2017-11-23T10:53:43.962Z,42.60
2017-11-23T10:56:12.646Z,43.40
2017-11-23T10:58:40.181Z,43.30
2017-11-23T11:01:07.712Z,42.60
2017-11-23T11:03:35.266Z,42.70
2017-11-23T11:06:03.567Z,43.60
2017-11-23T11:08:31.096Z,43.50
2017-11-23T11:10:58.658Z,43.40
2017-11-23T11:13:26.956Z,43.00
2017-11-23T11:15:54.497Z,42.90
2017-11-23T11:18:22.157Z,44.60
2017-11-23T11:20:49.690Z,44.20
2017-11-23T11:23:17.224Z,43.40
2017-11-23T11:25:45.128Z,44.50
2017-11-23T11:28:14.356Z,45.60
2017-11-23T11:30:41.908Z,45.50
2017-11-23T11:33:09.476Z,43.30
2017-11-23T11:35:37.533Z,43.80
2017-11-23T11:38:05.846Z,44.20
2017-11-23T11:40:33.468Z,44.20
2017-11-23T11:43:01.808Z,44.60
2017-11-23T11:45:29.360Z,44.50
2017-11-23T11:47:56.961Z,43.50
2017-11-23T11:50:24.514Z,43.20
2017-11-23T11:52:52.825Z,43.00
2017-11-23T11:55:20.412Z,43.00
2017-11-23T11:57:47.961Z,43.10
2017-11-23T12:00:16.547Z,42.60
2017-11-23T12:02:44.132Z,42.60
2017-11-23T12:05:11.675Z,42.90
2017-11-23T12:07:39.984Z,41.40
2017-11-23T12:10:08.344Z,41.50
2017-11-23T12:12:35.883Z,41.40
2017-11-23T12:15:15.317Z,41.50
2017-11-23T12:20:51.171Z,40.60
2017-11-23T12:23:30.347Z,40.90
2017-11-23T12:25:59.588Z,38.50
2017-11-23T12:28:38.903Z,38.40
2017-11-23T12:31:07.238Z,38.30
2017-11-23T12:33:34.777Z,38.30
2017-11-23T12:36:02.315Z,38.30
2017-11-23T12:38:29.901Z,37.40
2017-11-23T12:40:57.428Z,38.70
2017-11-23T12:43:25.077Z,37.70
2017-11-23T12:45:53.404Z,37.60
2017-11-23T12:48:20.938Z,37.50
2017-11-23T12:50:48.484Z,38.70
2017-11-23T12:53:16.523Z,39.20
2017-11-23T12:55:44.860Z,40.20
2017-11-23T12:58:12.407Z,40.20
2017-11-23T13:00:39.992Z,40.80
2017-11-23T13:03:07.528Z,41.00
2017-11-23T13:05:35.080Z,37.50
2017-11-23T13:08:02.722Z,37.80
2017-11-23T13:10:30.265Z,38.50
2017-11-23T13:12:57.818Z,37.90
2017-11-23T13:15:26.134Z,39.60
2017-11-23T13:17:53.660Z,39.50
2017-11-23T13:20:21.957Z,39.60
2017-11-23T13:22:49.548Z,39.70
2017-11-23T13:25:17.078Z,40.80
2017-11-23T13:27:44.617Z,38.80
2017-11-23T13:30:13.870Z,40.50
2017-11-23T13:32:41.468Z,40.40
2017-11-23T13:35:09.001Z,40.20
2017-11-23T13:37:36.848Z,39.70
2017-11-23T13:40:04.388Z,40.30
2017-11-23T13:42:31.932Z,39.00
2017-11-23T13:44:59.534Z,38.30
2017-11-23T13:47:27.084Z,38.60
2017-11-23T13:49:54.660Z,39.40
2017-11-23T13:52:22.322Z,40.60
2017-11-23T13:54:49.865Z,40.60
2017-11-23T13:57:17.427Z,38.90
2017-11-23T13:59:45.790Z,39.30
2017-11-23T14:02:18.630Z,38.70
2017-11-23T14:07:27.632Z,40.30
2017-11-23T14:09:55.979Z,40.20
2017-11-23T14:12:23.531Z,41.20
2017-11-23T14:14:51.089Z,40.90
2017-11-23T14:17:18.628Z,41.70
2017-11-23T14:19:46.192Z,42.20
2017-11-23T14:22:26.001Z,42.20
2017-11-23T14:32:24.445Z,41.20
2017-11-23T14:42:34.169Z,42.50
2017-11-23T14:45:01.726Z,42.60
2017-11-23T14:47:29.262Z,43.50
2017-11-23T14:49:57.644Z,43.50
2017-11-23T14:52:25.938Z,44.30
2017-11-23T14:54:53.486Z,44.30
2017-11-23T14:57:21.813Z,44.10
2017-11-23T14:59:49.373Z,44.00
2017-11-23T15:02:16.929Z,44.50
2017-11-23T15:04:44.530Z,45.00
2017-11-23T15:07:13.973Z,45.10
2017-11-23T15:09:41.511Z,45.10
2017-11-23T15:12:09.109Z,44.70
2017-11-23T15:14:36.650Z,44.70
2017-11-23T15:17:04.196Z,44.80
2017-11-23T15:19:31.754Z,44.50
2017-11-23T15:21:59.289Z,45.90
2017-11-23T15:24:26.826Z,46.00
2017-11-23T15:26:54.381Z,45.70
2017-11-23T15:29:21.925Z,45.80
2017-11-23T15:31:50.140Z,47.00
2017-11-23T15:34:17.729Z,46.40
2017-11-23T15:36:45.285Z,47.20
2017-11-23T15:39:13.770Z,47.20
2017-11-23T15:41:42.237Z,47.80
2017-11-23T15:44:09.792Z,48.60
2017-11-23T15:46:37.402Z,49.30
2017-11-23T15:49:05.769Z,49.70
2017-11-23T15:51:33.332Z,49.40
2017-11-23T15:54:00.876Z,47.80
2017-11-23T15:56:28.468Z,49.70
2017-11-23T15:58:56.022Z,49.90
2017-11-23T16:01:23.574Z,50.00
2017-11-23T16:03:51.163Z,50.90
2017-11-23T16:06:18.756Z,51.50
2017-11-23T16:08:46.437Z,52.20
2017-11-23T16:11:15.605Z,52.60
2017-11-23T16:13:43.184Z,53.30
2017-11-23T16:16:10.733Z,53.80
2017-11-23T16:18:38.362Z,54.70
2017-11-23T16:21:06.706Z,55.30
2017-11-23T16:23:34.273Z,55.30
2017-11-23T16:26:01.845Z,55.70
2017-11-23T16:28:30.202Z,56.30
2017-11-23T16:30:57.734Z,56.20
2017-11-23T16:33:25.354Z,56.80
2017-11-23T16:35:53.448Z,57.10
2017-11-23T16:38:21.001Z,57.50
2017-11-23T16:40:50.561Z,58.00
2017-11-23T16:43:24.847Z,58.10
2017-11-23T16:46:04.591Z,58.40
2017-11-23T16:48:42.362Z,58.60
2017-11-23T16:54:15.519Z,58.50
2017-11-23T16:56:59.865Z,58.60
2017-11-23T16:59:37.380Z,58.70
2017-11-23T17:02:10.549Z,58.90
2017-11-23T17:07:43.680Z,58.10
2017-11-23T17:10:32.027Z,58.20
2017-11-23T17:13:06.172Z,58.00
2017-11-23T17:15:53.500Z,58.00
2017-11-23T17:18:40.948Z,58.00
2017-11-23T17:21:08.696Z,58.10
2017-11-23T17:23:36.333Z,58.20
2017-11-23T17:26:04.821Z,58.30
2017-11-23T17:28:32.364Z,58.30
2017-11-23T17:31:01.408Z,58.50
2017-11-23T17:33:29.542Z,58.20
2017-11-23T17:35:57.142Z,58.20
2017-11-23T17:38:24.696Z,58.10
2017-11-23T17:40:52.297Z,58.20
2017-11-23T17:43:19.891Z,58.30
2017-11-23T17:45:47.507Z,59.30
2017-11-23T17:48:16.763Z,59.30
2017-11-23T17:50:44.564Z,59.30
2017-11-23T17:53:13.839Z,60.20
2017-11-23T17:55:41.449Z,59.50
2017-11-23T17:58:09.038Z,59.60
2017-11-23T18:00:36.616Z,59.70
2017-11-23T18:03:04.284Z,59.60
2017-11-23T18:05:31.809Z,59.60
2017-11-23T18:08:00.148Z,59.50
2017-11-23T18:10:27.705Z,59.50
2017-11-23T18:12:55.298Z,59.40
2017-11-23T18:15:23.643Z,59.60
2017-11-23T18:17:51.428Z,59.60
2017-11-23T18:20:19.030Z,59.70
2017-11-23T18:22:46.573Z,59.80
2017-11-23T18:25:15.666Z,59.90
2017-11-23T18:27:43.376Z,60.20
2017-11-23T18:30:10.933Z,60.30
2017-11-23T18:32:38.493Z,60.30
2017-11-23T18:35:06.045Z,60.50
2017-11-23T18:37:33.617Z,60.70
2017-11-23T18:40:01.201Z,60.90
2017-11-23T18:42:29.555Z,61.00
2017-11-23T18:44:57.148Z,61.00
2017-11-23T18:47:25.472Z,61.20
2017-11-23T18:49:53.567Z,61.20
2017-11-23T18:52:21.239Z,61.20
2017-11-23T18:54:49.619Z,61.40
2017-11-23T18:57:17.254Z,61.40
2017-11-23T18:59:44.890Z,61.40
2017-11-23T19:02:12.622Z,61.30
2017-11-23T19:04:40.180Z,61.40
2017-11-23T19:07:07.834Z,61.50
2017-11-23T19:09:36.189Z,61.90
2017-11-23T19:12:03.725Z,61.90
2017-11-23T19:14:32.079Z,62.40
2017-11-23T19:16:59.713Z,62.30
2017-11-23T19:19:27.363Z,62.50
2017-11-23T19:21:55.744Z,62.80
2017-11-23T19:24:23.421Z,62.80
2017-11-23T19:26:51.085Z,63.10
2017-11-23T19:29:18.791Z,63.80
2017-11-23T19:31:46.468Z,63.30
2017-11-23T19:34:26.077Z,63.80
2017-11-23T19:39:28.023Z,63.80
2017-11-23T19:41:55.606Z,64.20
2017-11-23T19:44:23.184Z,64.50
2017-11-23T19:46:52.296Z,64.60
2017-11-23T19:49:19.903Z,64.40
2017-11-23T19:51:47.859Z,64.40
2017-11-23T19:54:16.932Z,64.30
2017-11-23T19:56:45.554Z,64.50
2017-11-23T19:59:24.277Z,64.50
2017-11-23T20:04:46.846Z,64.50
2017-11-23T20:07:26.606Z,65.60
2017-11-23T20:12:26.264Z,65.50
2017-11-23T20:14:53.920Z,65.90
2017-11-23T20:17:21.573Z,66.10
2017-11-23T20:19:49.987Z,66.20
2017-11-23T20:22:17.710Z,66.00
2017-11-23T20:24:45.322Z,66.00
2017-11-23T20:27:14.661Z,66.00
2017-11-23T20:29:42.272Z,66.00
2017-11-23T20:32:10.794Z,66.00
2017-11-23T20:34:39.207Z,66.00
2017-11-23T20:37:06.811Z,66.00
2017-11-23T20:39:34.380Z,66.00
2017-11-23T20:42:02.129Z,66.10
2017-11-23T20:44:29.718Z,66.00
2017-11-23T20:46:57.241Z,65.90
2017-11-23T20:49:24.828Z,65.90
2017-11-23T20:51:52.836Z,65.80
2017-11-23T20:54:22.505Z,65.80
2017-11-23T20:56:50.117Z,65.70
2017-11-23T20:59:18.540Z,66.60
2017-11-23T21:01:46.156Z,65.90
2017-11-23T21:04:15.581Z,65.90
2017-11-23T21:06:43.910Z,65.70
2017-11-23T21:09:11.512Z,65.70
2017-11-23T21:11:39.930Z,65.10
2017-11-23T21:14:07.552Z,65.00
2017-11-23T21:16:35.934Z,65.10
2017-11-23T21:19:03.544Z,65.00
2017-11-23T21:21:31.895Z,64.90
2017-11-23T21:23:59.531Z,64.80
2017-11-23T21:26:27.173Z,64.50
2017-11-23T21:28:55.571Z,64.10
2017-11-23T21:31:23.956Z,64.20
2017-11-23T21:33:51.595Z,64.10
2017-11-23T21:36:19.982Z,64.40
2017-11-23T21:38:47.567Z,64.30
2017-11-23T21:41:16.604Z,64.60
2017-11-23T21:43:44.201Z,64.70
2017-11-23T21:46:12.494Z,65.00
2017-11-23T21:48:40.129Z,65.00
2017-11-23T21:51:07.702Z,65.00
2017-11-23T21:53:35.718Z,64.90
2017-11-23T21:56:03.384Z,64.80
2017-11-23T21:58:30.959Z,64.80
2017-11-23T22:00:58.497Z,64.60
2017-11-23T22:03:26.098Z,64.40
2017-11-23T22:05:53.649Z,64.30
2017-11-23T22:08:21.953Z,64.70
2017-11-23T22:10:49.834Z,64.60
2017-11-23T22:13:17.406Z,64.90
2017-11-23T22:15:44.983Z,65.00
2017-11-23T22:18:12.603Z,64.80
2017-11-23T22:20:40.162Z,64.70
2017-11-23T22:23:07.727Z,64.80
2017-11-23T22:25:35.323Z,64.70
2017-11-23T22:28:02.864Z,64.70
2017-11-23T22:30:30.392Z,64.60
2017-11-23T22:32:57.968Z,65.00
2017-11-23T22:35:25.563Z,64.50
2017-11-23T22:37:53.167Z,64.30
2017-11-23T22:40:20.733Z,64.30
2017-11-23T22:42:48.291Z,64.00
2017-11-23T22:45:17.227Z,63.30
2017-11-23T22:47:44.780Z,63.20
2017-11-23T22:50:12.305Z,62.80
2017-11-23T22:52:39.828Z,62.70
2017-11-23T22:55:08.222Z,62.50
2017-11-23T22:57:35.796Z,62.50
2017-11-23T23:00:03.373Z,62.90
2017-11-23T23:02:30.955Z,62.90
2017-11-23T23:04:58.487Z,62.90
2017-11-23T23:07:26.062Z,63.10
2017-11-23T23:09:53.663Z,63.20
2017-11-23T23:12:22.018Z,63.40
2017-11-23T23:14:49.572Z,63.40
2017-11-23T23:17:17.190Z,63.70
2017-11-23T23:19:44.724Z,63.80
2017-11-23T23:22:14.078Z,63.30
2017-11-23T23:24:41.683Z,63.30
2017-11-23T23:27:09.205Z,63.40
2017-11-23T23:29:36.769Z,63.60
2017-11-23T23:32:04.338Z,63.60
2017-11-23T23:34:31.872Z,63.80
2017-11-23T23:36:59.397Z,63.10
2017-11-23T23:39:27.023Z,62.70
2017-11-23T23:41:54.548Z,62.40
2017-11-23T23:44:22.080Z,62.40
2017-11-23T23:46:49.637Z,62.40
2017-11-23T23:49:17.164Z,62.30
2017-11-23T23:51:45.466Z,62.60
2017-11-23T23:54:23.568Z,62.60
2017-11-23T23:59:28.812Z,62.90
